sensor_id;sensor_type;location;lat;lon;timestamp;temperature;humidity
35613;DHT22;22054;51.646;7.078;2022-09-29T00:01:40;7.80;99.90
35613;DHT22;22054;51.646;7.078;2022-09-29T00:04:06;7.80;99.90
35613;DHT22;22054;51.646;7.078;2022-09-29T00:06:32;7.80;99.90
35613;DHT22;22054;51.646;7.078;2022-09-29T00:08:58;7.80;99.90
35613;DHT22;22054;51.646;7.078;2022-09-29T00:11:23;7.80;99.90
35613;DHT22;22054;51.646;7.078;2022-09-29T00:13:49;7.70;99.90
35613;DHT22;22054;51.646;7.078;2022-09-29T00:16:15;7.70;99.90
35613;DHT22;22054;51.646;7.078;2022-09-29T00:18:41;7.70;99.90
35613;DHT22;22054;51.646;7.078;2022-09-29T00:21:09;7.70;99.90
35613;DHT22;22054;51.646;7.078;2022-09-29T00:23:37;7.70;99.90
35613;DHT22;22054;51.646;7.078;2022-09-29T00:26:11;7.70;99.90
35613;DHT22;22054;51.646;7.078;2022-09-29T00:28:40;7.70;99.90
35613;DHT22;22054;51.646;7.078;2022-09-29T00:31:10;7.70;99.90
35613;DHT22;22054;51.646;7.078;2022-09-29T00:33:38;7.60;99.90
35613;DHT22;22054;51.646;7.078;2022-09-29T00:36:10;7.60;99.90
35613;DHT22;22054;51.646;7.078;2022-09-29T00:38:38;7.60;99.90
35613;DHT22;22054;51.646;7.078;2022-09-29T00:41:05;7.60;99.90
35613;DHT22;22054;51.646;7.078;2022-09-29T00:46:40;7.60;99.90
35613;DHT22;22054;51.646;7.078;2022-09-29T00:51:50;7.70;99.90
35613;DHT22;22054;51.646;7.078;2022-09-29T00:54:19;7.50;99.90
35613;DHT22;22054;51.646;7.078;2022-09-29T00:56:45;7.40;99.90
35613;DHT22;22054;51.646;7.078;2022-09-29T00:59:18;7.50;99.90
35613;DHT22;22054;51.646;7.078;2022-09-29T01:01:49;7.50;99.90
35613;DHT22;22054;51.646;7.078;2022-09-29T01:04:17;7.50;99.90
35613;DHT22;22054;51.646;7.078;2022-09-29T01:06:55;7.50;99.90
35613;DHT22;22054;51.646;7.078;2022-09-29T01:09:31;7.40;99.90
35613;DHT22;22054;51.646;7.078;2022-09-29T01:11:59;7.20;99.90
35613;DHT22;22054;51.646;7.078;2022-09-29T01:14:26;7.40;99.90
35613;DHT22;22054;51.646;7.078;2022-09-29T01:16:53;7.40;99.90
35613;DHT22;22054;51.646;7.078;2022-09-29T01:19:40;7.40;99.90
35613;DHT22;22054;51.646;7.078;2022-09-29T01:34:38;7.30;99.90
35613;DHT22;22054;51.646;7.078;2022-09-29T01:41:56;7.20;99.90
35613;DHT22;22054;51.646;7.078;2022-09-29T01:44:56;7.20;99.90
35613;DHT22;22054;51.646;7.078;2022-09-29T01:47:39;7.20;99.90
35613;DHT22;22054;51.646;7.078;2022-09-29T01:50:28;7.30;99.90
35613;DHT22;22054;51.646;7.078;2022-09-29T01:53:03;7.20;99.90
35613;DHT22;22054;51.646;7.078;2022-09-29T01:55:34;7.30;99.90
35613;DHT22;22054;51.646;7.078;2022-09-29T01:58:09;7.20;99.90
35613;DHT22;22054;51.646;7.078;2022-09-29T02:00:44;7.20;99.90
35613;DHT22;22054;51.646;7.078;2022-09-29T02:03:37;7.20;99.90
35613;DHT22;22054;51.646;7.078;2022-09-29T02:06:20;7.10;99.90
35613;DHT22;22054;51.646;7.078;2022-09-29T02:08:51;7.10;99.90
35613;DHT22;22054;51.646;7.078;2022-09-29T02:11:18;7.10;99.90
35613;DHT22;22054;51.646;7.078;2022-09-29T02:13:49;7.10;99.90
35613;DHT22;22054;51.646;7.078;2022-09-29T02:16:23;7.10;99.90
35613;DHT22;22054;51.646;7.078;2022-09-29T02:18:54;7.10;99.90
35613;DHT22;22054;51.646;7.078;2022-09-29T02:21:23;7.10;99.90
35613;DHT22;22054;51.646;7.078;2022-09-29T02:23:51;7.10;99.90
35613;DHT22;22054;51.646;7.078;2022-09-29T02:26:18;7.10;99.90
35613;DHT22;22054;51.646;7.078;2022-09-29T02:28:45;7.00;99.90
35613;DHT22;22054;51.646;7.078;2022-09-29T02:31:11;7.10;99.90
35613;DHT22;22054;51.646;7.078;2022-09-29T02:33:37;7.30;99.90
35613;DHT22;22054;51.646;7.078;2022-09-29T02:36:23;7.30;99.90
35613;DHT22;22054;51.646;7.078;2022-09-29T02:39:03;7.00;99.90
35613;DHT22;22054;51.646;7.078;2022-09-29T02:42:03;7.00;99.90
35613;DHT22;22054;51.646;7.078;2022-09-29T02:44:54;7.00;99.90
35613;DHT22;22054;51.646;7.078;2022-09-29T02:48:12;7.00;99.90
35613;DHT22;22054;51.646;7.078;2022-09-29T02:53:49;7.00;99.90
35613;DHT22;22054;51.646;7.078;2022-09-29T02:56:43;6.90;99.90
35613;DHT22;22054;51.646;7.078;2022-09-29T02:59:19;6.90;99.90
35613;DHT22;22054;51.646;7.078;2022-09-29T03:01:56;6.90;99.90
35613;DHT22;22054;51.646;7.078;2022-09-29T03:04:25;6.80;99.90
35613;DHT22;22054;51.646;7.078;2022-09-29T03:06:51;6.80;99.90
35613;DHT22;22054;51.646;7.078;2022-09-29T03:09:17;6.80;99.90
35613;DHT22;22054;51.646;7.078;2022-09-29T03:11:43;6.80;99.90
35613;DHT22;22054;51.646;7.078;2022-09-29T03:14:09;7.00;99.90
35613;DHT22;22054;51.646;7.078;2022-09-29T03:16:36;6.80;99.90
35613;DHT22;22054;51.646;7.078;2022-09-29T03:19:03;6.80;99.90
35613;DHT22;22054;51.646;7.078;2022-09-29T03:21:30;6.80;99.90
35613;DHT22;22054;51.646;7.078;2022-09-29T03:23:56;6.70;99.90
35613;DHT22;22054;51.646;7.078;2022-09-29T03:26:22;6.70;99.90
35613;DHT22;22054;51.646;7.078;2022-09-29T03:28:49;6.80;99.90
35613;DHT22;22054;51.646;7.078;2022-09-29T03:31:15;6.80;99.90
35613;DHT22;22054;51.646;7.078;2022-09-29T03:33:41;6.80;99.90
35613;DHT22;22054;51.646;7.078;2022-09-29T03:36:08;6.80;99.90
35613;DHT22;22054;51.646;7.078;2022-09-29T03:38:36;6.80;99.90
35613;DHT22;22054;51.646;7.078;2022-09-29T03:41:03;6.80;99.90
35613;DHT22;22054;51.646;7.078;2022-09-29T03:43:30;6.80;99.90
35613;DHT22;22054;51.646;7.078;2022-09-29T03:45:56;6.80;99.90
35613;DHT22;22054;51.646;7.078;2022-09-29T03:48:23;6.80;99.90
35613;DHT22;22054;51.646;7.078;2022-09-29T03:50:50;6.80;99.90
35613;DHT22;22054;51.646;7.078;2022-09-29T03:53:18;6.80;99.90
35613;DHT22;22054;51.646;7.078;2022-09-29T03:55:47;6.80;99.90
35613;DHT22;22054;51.646;7.078;2022-09-29T03:58:14;6.80;99.90
35613;DHT22;22054;51.646;7.078;2022-09-29T04:00:40;6.70;99.90
35613;DHT22;22054;51.646;7.078;2022-09-29T04:03:06;6.70;99.90
35613;DHT22;22054;51.646;7.078;2022-09-29T04:05:32;6.70;99.90
35613;DHT22;22054;51.646;7.078;2022-09-29T04:08:04;6.70;99.90
35613;DHT22;22054;51.646;7.078;2022-09-29T04:10:33;6.70;99.90
35613;DHT22;22054;51.646;7.078;2022-09-29T04:12:59;6.80;99.90
35613;DHT22;22054;51.646;7.078;2022-09-29T04:15:25;6.70;99.90
35613;DHT22;22054;51.646;7.078;2022-09-29T04:17:51;6.80;99.90
35613;DHT22;22054;51.646;7.078;2022-09-29T04:20:17;6.70;99.90
35613;DHT22;22054;51.646;7.078;2022-09-29T04:22:42;6.70;99.90
35613;DHT22;22054;51.646;7.078;2022-09-29T04:25:08;6.70;99.90
35613;DHT22;22054;51.646;7.078;2022-09-29T04:27:34;6.70;99.90
35613;DHT22;22054;51.646;7.078;2022-09-29T04:30:00;6.70;99.90
35613;DHT22;22054;51.646;7.078;2022-09-29T04:32:25;6.70;99.90
35613;DHT22;22054;51.646;7.078;2022-09-29T04:34:51;6.70;99.90
35613;DHT22;22054;51.646;7.078;2022-09-29T04:37:17;6.70;99.90
35613;DHT22;22054;51.646;7.078;2022-09-29T04:39:43;6.60;99.90
35613;DHT22;22054;51.646;7.078;2022-09-29T04:42:08;6.60;99.90
35613;DHT22;22054;51.646;7.078;2022-09-29T04:44:34;6.50;99.90
35613;DHT22;22054;51.646;7.078;2022-09-29T04:47:00;6.60;99.90
35613;DHT22;22054;51.646;7.078;2022-09-29T04:49:26;6.50;99.90
35613;DHT22;22054;51.646;7.078;2022-09-29T04:51:51;6.50;99.90
35613;DHT22;22054;51.646;7.078;2022-09-29T04:54:17;6.40;99.90
35613;DHT22;22054;51.646;7.078;2022-09-29T04:56:43;6.40;99.90
35613;DHT22;22054;51.646;7.078;2022-09-29T04:59:09;6.40;99.90
35613;DHT22;22054;51.646;7.078;2022-09-29T05:01:35;6.30;99.90
35613;DHT22;22054;51.646;7.078;2022-09-29T05:04:01;6.30;99.90
35613;DHT22;22054;51.646;7.078;2022-09-29T05:06:27;6.30;99.90
35613;DHT22;22054;51.646;7.078;2022-09-29T05:08:53;6.30;99.90
35613;DHT22;22054;51.646;7.078;2022-09-29T05:11:18;6.20;99.90
35613;DHT22;22054;51.646;7.078;2022-09-29T05:13:47;6.20;99.90
35613;DHT22;22054;51.646;7.078;2022-09-29T05:16:15;6.20;99.90
35613;DHT22;22054;51.646;7.078;2022-09-29T05:18:41;6.20;99.90
35613;DHT22;22054;51.646;7.078;2022-09-29T05:21:07;6.20;99.90
35613;DHT22;22054;51.646;7.078;2022-09-29T05:23:33;6.20;99.90
35613;DHT22;22054;51.646;7.078;2022-09-29T05:26:06;6.20;99.90
35613;DHT22;22054;51.646;7.078;2022-09-29T05:28:33;6.20;99.90
35613;DHT22;22054;51.646;7.078;2022-09-29T05:31:05;6.20;99.90
35613;DHT22;22054;51.646;7.078;2022-09-29T05:33:32;6.20;99.90
35613;DHT22;22054;51.646;7.078;2022-09-29T05:35:58;6.20;99.90
35613;DHT22;22054;51.646;7.078;2022-09-29T05:38:24;6.30;99.90
35613;DHT22;22054;51.646;7.078;2022-09-29T05:40:51;6.30;99.90
35613;DHT22;22054;51.646;7.078;2022-09-29T05:43:20;6.30;99.90
35613;DHT22;22054;51.646;7.078;2022-09-29T05:45:46;6.20;99.90
35613;DHT22;22054;51.646;7.078;2022-09-29T05:48:12;6.20;99.90
35613;DHT22;22054;51.646;7.078;2022-09-29T05:50:37;6.20;99.90
35613;DHT22;22054;51.646;7.078;2022-09-29T05:53:07;6.20;99.90
35613;DHT22;22054;51.646;7.078;2022-09-29T05:55:37;6.20;99.90
35613;DHT22;22054;51.646;7.078;2022-09-29T05:58:04;6.20;99.90
35613;DHT22;22054;51.646;7.078;2022-09-29T06:00:31;6.20;99.90
35613;DHT22;22054;51.646;7.078;2022-09-29T06:03:01;6.30;99.90
35613;DHT22;22054;51.646;7.078;2022-09-29T06:05:27;6.40;99.90
35613;DHT22;22054;51.646;7.078;2022-09-29T06:07:54;6.60;99.90
35613;DHT22;22054;51.646;7.078;2022-09-29T06:10:20;6.50;99.90
35613;DHT22;22054;51.646;7.078;2022-09-29T06:12:46;6.50;99.90
35613;DHT22;22054;51.646;7.078;2022-09-29T06:15:12;6.60;99.90
35613;DHT22;22054;51.646;7.078;2022-09-29T06:17:38;6.60;99.90
35613;DHT22;22054;51.646;7.078;2022-09-29T06:20:06;6.70;99.90
35613;DHT22;22054;51.646;7.078;2022-09-29T06:22:32;6.70;99.90
35613;DHT22;22054;51.646;7.078;2022-09-29T06:24:58;6.70;99.90
35613;DHT22;22054;51.646;7.078;2022-09-29T06:27:24;6.70;99.90
35613;DHT22;22054;51.646;7.078;2022-09-29T06:29:50;6.80;99.90
35613;DHT22;22054;51.646;7.078;2022-09-29T06:32:15;6.80;99.90
35613;DHT22;22054;51.646;7.078;2022-09-29T06:34:41;7.00;99.90
35613;DHT22;22054;51.646;7.078;2022-09-29T06:37:26;6.90;99.90
35613;DHT22;22054;51.646;7.078;2022-09-29T06:40:03;7.00;99.90
35613;DHT22;22054;51.646;7.078;2022-09-29T06:42:33;7.00;99.90
35613;DHT22;22054;51.646;7.078;2022-09-29T06:44:59;7.10;99.90
35613;DHT22;22054;51.646;7.078;2022-09-29T06:47:26;7.20;99.90
35613;DHT22;22054;51.646;7.078;2022-09-29T06:49:52;7.30;99.90
35613;DHT22;22054;51.646;7.078;2022-09-29T06:52:18;7.40;99.90
35613;DHT22;22054;51.646;7.078;2022-09-29T06:54:44;7.40;99.90
35613;DHT22;22054;51.646;7.078;2022-09-29T06:57:09;7.50;99.90
35613;DHT22;22054;51.646;7.078;2022-09-29T06:59:36;7.60;99.90
35613;DHT22;22054;51.646;7.078;2022-09-29T07:02:01;7.70;99.90
35613;DHT22;22054;51.646;7.078;2022-09-29T07:04:27;7.80;99.90
35613;DHT22;22054;51.646;7.078;2022-09-29T07:06:53;8.00;99.90
35613;DHT22;22054;51.646;7.078;2022-09-29T07:09:19;8.10;99.90
35613;DHT22;22054;51.646;7.078;2022-09-29T07:11:50;8.20;99.90
35613;DHT22;22054;51.646;7.078;2022-09-29T07:14:18;8.40;99.90
35613;DHT22;22054;51.646;7.078;2022-09-29T07:16:44;8.40;99.90
35613;DHT22;22054;51.646;7.078;2022-09-29T07:19:13;8.60;99.90
35613;DHT22;22054;51.646;7.078;2022-09-29T07:21:39;8.80;99.90
35613;DHT22;22054;51.646;7.078;2022-09-29T07:24:05;9.00;99.90
35613;DHT22;22054;51.646;7.078;2022-09-29T07:26:31;9.00;99.90
35613;DHT22;22054;51.646;7.078;2022-09-29T07:28:57;9.30;99.90
35613;DHT22;22054;51.646;7.078;2022-09-29T07:31:23;9.20;99.90
35613;DHT22;22054;51.646;7.078;2022-09-29T07:33:49;9.40;99.90
35613;DHT22;22054;51.646;7.078;2022-09-29T07:36:17;9.60;99.90
35613;DHT22;22054;51.646;7.078;2022-09-29T07:38:45;9.80;99.90
35613;DHT22;22054;51.646;7.078;2022-09-29T07:41:15;9.90;99.90
35613;DHT22;22054;51.646;7.078;2022-09-29T07:43:42;10.00;99.90
35613;DHT22;22054;51.646;7.078;2022-09-29T07:46:08;10.20;99.90
35613;DHT22;22054;51.646;7.078;2022-09-29T07:48:35;10.30;99.90
35613;DHT22;22054;51.646;7.078;2022-09-29T07:51:05;10.40;99.90
35613;DHT22;22054;51.646;7.078;2022-09-29T07:53:41;10.50;99.90
35613;DHT22;22054;51.646;7.078;2022-09-29T07:56:13;10.60;99.90
35613;DHT22;22054;51.646;7.078;2022-09-29T07:58:41;10.70;99.90
35613;DHT22;22054;51.646;7.078;2022-09-29T08:01:09;10.80;99.90
35613;DHT22;22054;51.646;7.078;2022-09-29T08:03:38;10.90;99.90
35613;DHT22;22054;51.646;7.078;2022-09-29T08:06:09;11.10;99.90
35613;DHT22;22054;51.646;7.078;2022-09-29T08:08:36;11.10;99.90
35613;DHT22;22054;51.646;7.078;2022-09-29T08:11:14;11.20;99.90
35613;DHT22;22054;51.646;7.078;2022-09-29T08:13:40;11.30;99.90
35613;DHT22;22054;51.646;7.078;2022-09-29T08:16:10;11.40;99.90
35613;DHT22;22054;51.646;7.078;2022-09-29T08:18:37;11.60;99.20
35613;DHT22;22054;51.646;7.078;2022-09-29T08:21:04;11.50;99.90
35613;DHT22;22054;51.646;7.078;2022-09-29T08:23:34;11.60;99.90
35613;DHT22;22054;51.646;7.078;2022-09-29T08:26:02;11.70;92.00
35613;DHT22;22054;51.646;7.078;2022-09-29T08:28:30;11.80;95.30
35613;DHT22;22054;51.646;7.078;2022-09-29T08:31:01;11.80;93.10
35613;DHT22;22054;51.646;7.078;2022-09-29T08:33:31;11.80;95.50
35613;DHT22;22054;51.646;7.078;2022-09-29T08:35:58;12.00;88.80
35613;DHT22;22054;51.646;7.078;2022-09-29T08:38:25;12.00;90.50
35613;DHT22;22054;51.646;7.078;2022-09-29T08:40:52;12.20;88.70
35613;DHT22;22054;51.646;7.078;2022-09-29T08:43:26;12.40;79.30
35613;DHT22;22054;51.646;7.078;2022-09-29T08:46:41;12.50;70.20
35613;DHT22;22054;51.646;7.078;2022-09-29T08:48:50;12.60;66.10
35613;DHT22;22054;51.646;7.078;2022-09-29T08:51:25;12.70;52.40
35613;DHT22;22054;51.646;7.078;2022-09-29T08:53:57;12.80;43.40
35613;DHT22;22054;51.646;7.078;2022-09-29T08:56:25;12.80;7.80
35613;DHT22;22054;51.646;7.078;2022-09-29T08:58:51;13.10;1.00
35613;DHT22;22054;51.646;7.078;2022-09-29T09:01:51;13.00;1.00
35613;DHT22;22054;51.646;7.078;2022-09-29T09:07:58;13.20;1.00
35613;DHT22;22054;51.646;7.078;2022-09-29T09:10:48;13.30;1.00
35613;DHT22;22054;51.646;7.078;2022-09-29T09:19:48;13.50;1.00
35613;DHT22;22054;51.646;7.078;2022-09-29T09:22:37;13.50;1.00
35613;DHT22;22054;51.646;7.078;2022-09-29T09:25:33;13.60;1.00
35613;DHT22;22054;51.646;7.078;2022-09-29T09:28:18;13.80;1.00
35613;DHT22;22054;51.646;7.078;2022-09-29T09:33:31;14.10;1.00
35613;DHT22;22054;51.646;7.078;2022-09-29T09:36:17;14.30;1.00
35613;DHT22;22054;51.646;7.078;2022-09-29T09:39:11;14.40;1.00
35613;DHT22;22054;51.646;7.078;2022-09-29T09:41:41;14.60;1.00
35613;DHT22;22054;51.646;7.078;2022-09-29T09:44:12;14.70;99.90
35613;DHT22;22054;51.646;7.078;2022-09-29T09:50:12;14.70;99.90
35613;DHT22;22054;51.646;7.078;2022-09-29T09:52:57;14.90;1.00
35613;DHT22;22054;51.646;7.078;2022-09-29T09:55:29;15.00;99.90
35613;DHT22;22054;51.646;7.078;2022-09-29T09:58:22;15.00;1.00
35613;DHT22;22054;51.646;7.078;2022-09-29T10:00:57;15.10;1.00
35613;DHT22;22054;51.646;7.078;2022-09-29T10:03:26;15.30;99.90
35613;DHT22;22054;51.646;7.078;2022-09-29T10:05:53;15.30;1.00
35613;DHT22;22054;51.646;7.078;2022-09-29T10:08:33;15.30;99.90
35613;DHT22;22054;51.646;7.078;2022-09-29T10:11:25;15.30;1.00
35613;DHT22;22054;51.646;7.078;2022-09-29T10:14:23;15.20;1.00
35613;DHT22;22054;51.646;7.078;2022-09-29T10:17:05;15.10;1.00
35613;DHT22;22054;51.646;7.078;2022-09-29T10:19:57;14.80;1.00
35613;DHT22;22054;51.646;7.078;2022-09-29T10:22:29;14.70;1.00
35613;DHT22;22054;51.646;7.078;2022-09-29T10:25:18;14.90;1.00
35613;DHT22;22054;51.646;7.078;2022-09-29T10:27:50;15.30;1.00
35613;DHT22;22054;51.646;7.078;2022-09-29T10:30:38;15.80;1.00
35613;DHT22;22054;51.646;7.078;2022-09-29T10:33:04;16.10;99.90
35613;DHT22;22054;51.646;7.078;2022-09-29T10:35:39;16.00;99.90
35613;DHT22;22054;51.646;7.078;2022-09-29T10:38:16;16.40;1.00
35613;DHT22;22054;51.646;7.078;2022-09-29T10:41:05;17.30;1.00
35613;DHT22;22054;51.646;7.078;2022-09-29T10:45:58;18.80;1.00
35613;DHT22;22054;51.646;7.078;2022-09-29T10:48:25;19.50;99.90
35613;DHT22;22054;51.646;7.078;2022-09-29T10:51:03;20.70;99.90
35613;DHT22;22054;51.646;7.078;2022-09-29T10:53:33;21.00;73.20
35613;DHT22;22054;51.646;7.078;2022-09-29T10:56:20;20.30;99.90
35613;DHT22;22054;51.646;7.078;2022-09-29T10:59:12;19.40;99.90
35613;DHT22;22054;51.646;7.078;2022-09-29T11:01:45;19.60;99.90
35613;DHT22;22054;51.646;7.078;2022-09-29T11:06:49;20.30;99.90
35613;DHT22;22054;51.646;7.078;2022-09-29T11:17:20;26.40;1.00
35613;DHT22;22054;51.646;7.078;2022-09-29T11:19:48;26.70;1.00
35613;DHT22;22054;51.646;7.078;2022-09-29T11:42:26;30.80;1.00
35613;DHT22;22054;51.646;7.078;2022-09-29T11:45:10;30.30;1.00
35613;DHT22;22054;51.646;7.078;2022-09-29T11:50:47;30.00;1.00
35613;DHT22;22054;51.646;7.078;2022-09-29T11:56:18;29.90;1.00
35613;DHT22;22054;51.646;7.078;2022-09-29T12:05:06;24.90;1.00
35613;DHT22;22054;51.646;7.078;2022-09-29T12:16:05;26.10;1.00
35613;DHT22;22054;51.646;7.078;2022-09-29T12:18:51;25.80;1.00
35613;DHT22;22054;51.646;7.078;2022-09-29T12:21:40;26.60;1.00
35613;DHT22;22054;51.646;7.078;2022-09-29T12:27:05;24.10;1.00
35613;DHT22;22054;51.646;7.078;2022-09-29T12:29:49;22.60;1.00
35613;DHT22;22054;51.646;7.078;2022-09-29T12:34:56;20.80;1.00
35613;DHT22;22054;51.646;7.078;2022-09-29T12:37:42;20.10;1.00
35613;DHT22;22054;51.646;7.078;2022-09-29T12:40:38;19.30;1.00
35613;DHT22;22054;51.646;7.078;2022-09-29T12:46:02;19.20;1.00
35613;DHT22;22054;51.646;7.078;2022-09-29T12:48:45;19.10;1.00
35613;DHT22;22054;51.646;7.078;2022-09-29T12:56:36;19.10;67.50
35613;DHT22;22054;51.646;7.078;2022-09-29T12:59:15;18.90;8.80
35613;DHT22;22054;51.646;7.078;2022-09-29T13:01:55;19.70;1.00
35613;DHT22;22054;51.646;7.078;2022-09-29T13:07:20;20.10;1.00
35613;DHT22;22054;51.646;7.078;2022-09-29T13:16:20;26.80;1.00
35613;DHT22;22054;51.646;7.078;2022-09-29T13:27:25;31.80;1.00
35613;DHT22;22054;51.646;7.078;2022-09-29T13:32:41;27.00;1.00
35613;DHT22;22054;51.646;7.078;2022-09-29T13:35:17;25.00;1.00
35613;DHT22;22054;51.646;7.078;2022-09-29T13:38:05;23.70;1.00
35613;DHT22;22054;51.646;7.078;2022-09-29T13:40:33;25.20;1.00
35613;DHT22;22054;51.646;7.078;2022-09-29T13:43:00;27.30;1.00
35613;DHT22;22054;51.646;7.078;2022-09-29T13:48:01;27.80;1.00
35613;DHT22;22054;51.646;7.078;2022-09-29T13:50:51;27.70;1.00
35613;DHT22;22054;51.646;7.078;2022-09-29T13:58:33;29.70;1.00
35613;DHT22;22054;51.646;7.078;2022-09-29T14:01:10;31.20;1.00
35613;DHT22;22054;51.646;7.078;2022-09-29T14:03:40;31.70;1.00
35613;DHT22;22054;51.646;7.078;2022-09-29T14:06:19;31.30;1.00
35613;DHT22;22054;51.646;7.078;2022-09-29T14:14:17;29.40;1.00
35613;DHT22;22054;51.646;7.078;2022-09-29T14:17:01;30.00;1.00
35613;DHT22;22054;51.646;7.078;2022-09-29T14:35:53;31.70;1.00
35613;DHT22;22054;51.646;7.078;2022-09-29T14:38:40;31.60;1.00
35613;DHT22;22054;51.646;7.078;2022-09-29T14:43:57;31.70;1.00
35613;DHT22;22054;51.646;7.078;2022-09-29T14:49:40;29.00;1.00
35613;DHT22;22054;51.646;7.078;2022-09-29T14:56:02;24.20;1.00
35613;DHT22;22054;51.646;7.078;2022-09-29T15:01:26;23.80;1.00
35613;DHT22;22054;51.646;7.078;2022-09-29T15:03:57;23.40;1.00
35613;DHT22;22054;51.646;7.078;2022-09-29T15:06:30;23.60;1.00
35613;DHT22;22054;51.646;7.078;2022-09-29T15:09:00;25.30;1.00
35613;DHT22;22054;51.646;7.078;2022-09-29T15:14:25;28.80;1.00
35613;DHT22;22054;51.646;7.078;2022-09-29T15:19:55;31.00;1.00
35613;DHT22;22054;51.646;7.078;2022-09-29T15:22:40;31.60;1.00
35613;DHT22;22054;51.646;7.078;2022-09-29T15:28:20;32.10;1.00
35613;DHT22;22054;51.646;7.078;2022-09-29T15:30:48;31.90;1.00
35613;DHT22;22054;51.646;7.078;2022-09-29T15:33:22;31.50;1.00
35613;DHT22;22054;51.646;7.078;2022-09-29T15:36:03;30.80;1.00
35613;DHT22;22054;51.646;7.078;2022-09-29T15:38:36;30.90;1.00
35613;DHT22;22054;51.646;7.078;2022-09-29T15:43:41;30.80;1.00
35613;DHT22;22054;51.646;7.078;2022-09-29T15:46:18;30.40;1.00
35613;DHT22;22054;51.646;7.078;2022-09-29T15:51:29;29.70;1.00
35613;DHT22;22054;51.646;7.078;2022-09-29T15:53:55;29.40;1.00
35613;DHT22;22054;51.646;7.078;2022-09-29T15:56:24;29.60;1.00
35613;DHT22;22054;51.646;7.078;2022-09-29T15:58:50;29.40;1.00
35613;DHT22;22054;51.646;7.078;2022-09-29T16:01:16;29.30;1.00
35613;DHT22;22054;51.646;7.078;2022-09-29T16:03:45;29.10;1.00
35613;DHT22;22054;51.646;7.078;2022-09-29T16:06:31;28.90;1.00
35613;DHT22;22054;51.646;7.078;2022-09-29T16:09:02;28.60;1.00
35613;DHT22;22054;51.646;7.078;2022-09-29T16:11:38;28.50;1.00
35613;DHT22;22054;51.646;7.078;2022-09-29T16:14:10;28.50;1.00
35613;DHT22;22054;51.646;7.078;2022-09-29T16:16:44;28.00;1.00
35613;DHT22;22054;51.646;7.078;2022-09-29T16:19:18;27.80;1.00
35613;DHT22;22054;51.646;7.078;2022-09-29T16:21:50;27.30;1.00
35613;DHT22;22054;51.646;7.078;2022-09-29T16:24:19;27.00;1.00
35613;DHT22;22054;51.646;7.078;2022-09-29T16:26:50;26.60;1.00
35613;DHT22;22054;51.646;7.078;2022-09-29T16:31:45;26.00;1.00
35613;DHT22;22054;51.646;7.078;2022-09-29T16:37:06;25.20;1.00
35613;DHT22;22054;51.646;7.078;2022-09-29T16:39:46;24.70;1.00
35613;DHT22;22054;51.646;7.078;2022-09-29T16:42:22;23.90;1.00
35613;DHT22;22054;51.646;7.078;2022-09-29T16:44:50;23.10;1.00
35613;DHT22;22054;51.646;7.078;2022-09-29T16:47:20;22.70;1.00
35613;DHT22;22054;51.646;7.078;2022-09-29T16:49:56;21.90;1.00
35613;DHT22;22054;51.646;7.078;2022-09-29T16:52:26;20.90;1.00
35613;DHT22;22054;51.646;7.078;2022-09-29T16:58:11;18.80;1.00
35613;DHT22;22054;51.646;7.078;2022-09-29T17:00:38;17.90;99.90
35613;DHT22;22054;51.646;7.078;2022-09-29T17:03:04;17.20;1.00
35613;DHT22;22054;51.646;7.078;2022-09-29T17:05:35;16.80;1.00
35613;DHT22;22054;51.646;7.078;2022-09-29T17:08:03;16.10;99.90
35613;DHT22;22054;51.646;7.078;2022-09-29T17:10:30;15.80;1.00
35613;DHT22;22054;51.646;7.078;2022-09-29T17:12:56;15.50;99.90
35613;DHT22;22054;51.646;7.078;2022-09-29T17:15:22;15.00;1.00
35613;DHT22;22054;51.646;7.078;2022-09-29T17:17:50;14.70;99.90
35613;DHT22;22054;51.646;7.078;2022-09-29T17:20:20;14.50;1.00
35613;DHT22;22054;51.646;7.078;2022-09-29T17:22:53;14.30;1.00
35613;DHT22;22054;51.646;7.078;2022-09-29T17:25:20;14.20;35.40
35613;DHT22;22054;51.646;7.078;2022-09-29T17:27:46;14.00;99.90
35613;DHT22;22054;51.646;7.078;2022-09-29T17:30:31;13.80;99.90
35613;DHT22;22054;51.646;7.078;2022-09-29T17:32:57;13.60;1.00
35613;DHT22;22054;51.646;7.078;2022-09-29T17:35:27;13.50;1.00
35613;DHT22;22054;51.646;7.078;2022-09-29T17:37:54;13.40;1.00
35613;DHT22;22054;51.646;7.078;2022-09-29T17:40:21;13.20;1.00
35613;DHT22;22054;51.646;7.078;2022-09-29T17:42:49;13.00;1.00
35613;DHT22;22054;51.646;7.078;2022-09-29T17:45:17;12.90;1.00
35613;DHT22;22054;51.646;7.078;2022-09-29T17:47:45;12.80;1.00
35613;DHT22;22054;51.646;7.078;2022-09-29T17:52:43;12.70;1.00
35613;DHT22;22054;51.646;7.078;2022-09-29T17:55:09;12.60;1.00
35613;DHT22;22054;51.646;7.078;2022-09-29T17:57:37;12.60;1.00
35613;DHT22;22054;51.646;7.078;2022-09-29T18:00:09;12.40;1.00
35613;DHT22;22054;51.646;7.078;2022-09-29T18:02:54;12.40;1.00
35613;DHT22;22054;51.646;7.078;2022-09-29T18:05:25;12.30;1.00
35613;DHT22;22054;51.646;7.078;2022-09-29T18:07:54;12.40;1.00
35613;DHT22;22054;51.646;7.078;2022-09-29T18:10:43;12.20;1.00
35613;DHT22;22054;51.646;7.078;2022-09-29T18:13:18;12.10;1.00
35613;DHT22;22054;51.646;7.078;2022-09-29T18:15:45;12.00;1.00
35613;DHT22;22054;51.646;7.078;2022-09-29T18:18:13;11.90;1.00
35613;DHT22;22054;51.646;7.078;2022-09-29T18:20:41;11.80;1.00
35613;DHT22;22054;51.646;7.078;2022-09-29T18:23:08;11.70;1.00
35613;DHT22;22054;51.646;7.078;2022-09-29T18:25:35;11.60;1.00
35613;DHT22;22054;51.646;7.078;2022-09-29T18:28:01;11.60;9.50
35613;DHT22;22054;51.646;7.078;2022-09-29T18:30:32;11.50;7.50
35613;DHT22;22054;51.646;7.078;2022-09-29T18:33:05;11.40;8.00
35613;DHT22;22054;51.646;7.078;2022-09-29T18:35:42;11.40;16.80
35613;DHT22;22054;51.646;7.078;2022-09-29T18:38:09;11.40;15.50
35613;DHT22;22054;51.646;7.078;2022-09-29T18:40:36;11.30;21.70
35613;DHT22;22054;51.646;7.078;2022-09-29T18:43:03;11.30;26.50
35613;DHT22;22054;51.646;7.078;2022-09-29T18:45:34;11.20;30.80
35613;DHT22;22054;51.646;7.078;2022-09-29T18:48:04;11.20;38.80
35613;DHT22;22054;51.646;7.078;2022-09-29T18:50:33;11.10;33.60
35613;DHT22;22054;51.646;7.078;2022-09-29T18:53:03;11.10;34.70
35613;DHT22;22054;51.646;7.078;2022-09-29T18:55:30;11.00;37.30
35613;DHT22;22054;51.646;7.078;2022-09-29T18:57:58;11.00;39.40
35613;DHT22;22054;51.646;7.078;2022-09-29T19:00:33;10.90;43.40
35613;DHT22;22054;51.646;7.078;2022-09-29T19:03:00;10.90;44.90
35613;DHT22;22054;51.646;7.078;2022-09-29T19:05:30;10.80;46.10
35613;DHT22;22054;51.646;7.078;2022-09-29T19:07:59;10.80;46.80
35613;DHT22;22054;51.646;7.078;2022-09-29T19:10:27;10.70;56.80
35613;DHT22;22054;51.646;7.078;2022-09-29T19:12:57;10.60;56.00
35613;DHT22;22054;51.646;7.078;2022-09-29T19:15:27;10.60;62.90
35613;DHT22;22054;51.646;7.078;2022-09-29T19:17:54;10.50;66.40
35613;DHT22;22054;51.646;7.078;2022-09-29T19:20:25;10.50;67.30
35613;DHT22;22054;51.646;7.078;2022-09-29T19:22:53;10.50;70.20
35613;DHT22;22054;51.646;7.078;2022-09-29T19:25:23;10.50;73.60
35613;DHT22;22054;51.646;7.078;2022-09-29T19:27:53;10.40;72.30